Time;durP1;ratioP1;P1;durP2;ratioP2;P2;SDS_P1;SDS_P2;PMS_P1;PMS_P2;Temp;Humidity;BMP_temperature;BMP_pressure;BME280_temperature;BME280_humidity;BME280_pressure;Samples;Min_cycle;Max_cycle;Signal;HPM_P1;HPM_P2
2023/08/12 00:00:22;;;;;;;6.18;4.28;;;19.40;99.90;;;;;;5043009;28;20045;-67
2023/08/12 00:02:47;;;;;;;9.57;4.22;;;19.30;99.90;;;;;;5057326;28;20033;-67
2023/08/12 00:05:13;;;;;;;8.68;4.20;;;19.30;99.90;;;;;;5054356;28;20045;-66
2023/08/12 00:07:43;;;;;;;5.32;4.10;;;19.30;99.90;;;;;;5058269;28;20389;-66
2023/08/12 00:10:10;;;;;;;6.38;4.90;;;19.30;99.90;;;;;;5040002;28;20045;-66
2023/08/12 00:12:37;;;;;;;13.65;4.80;;;19.30;99.90;;;;;;5067594;28;20034;-67
2023/08/12 00:15:06;;;;;;;10.30;5.40;;;19.30;99.90;;;;;;5035512;28;20041;-67
2023/08/12 00:17:32;;;;;;;11.10;5.68;;;19.30;99.90;;;;;;5040251;28;20049;-67
2023/08/12 00:19:58;;;;;;;10.98;5.28;;;19.20;99.90;;;;;;5036725;28;20081;-67
2023/08/12 00:22:24;;;;;;;11.63;6.18;;;19.20;99.90;;;;;;5040530;28;20036;-67
2023/08/12 00:24:51;;;;;;;10.50;6.85;;;19.20;99.90;;;;;;5022551;28;20180;-67
2023/08/12 00:27:17;;;;;;;12.02;6.45;;;19.20;99.90;;;;;;5024403;28;20383;-67
2023/08/12 00:29:43;;;;;;;14.50;6.47;;;19.20;99.90;;;;;;5036262;28;20045;-67
2023/08/12 00:32:09;;;;;;;10.90;6.72;;;19.20;99.90;;;;;;5040070;28;20041;-67
2023/08/12 00:34:35;;;;;;;9.43;6.55;;;19.20;99.90;;;;;;5059364;28;20041;-66
2023/08/12 00:37:01;;;;;;;13.15;7.40;;;19.20;99.90;;;;;;5039899;28;20041;-67
2023/08/12 00:39:27;;;;;;;9.73;6.70;;;19.20;99.90;;;;;;5040629;28;20052;-67
2023/08/12 00:41:52;;;;;;;14.07;7.18;;;19.20;99.90;;;;;;5051708;28;20049;-66
2023/08/12 00:44:18;;;;;;;12.02;7.57;;;19.20;99.90;;;;;;5063785;28;20398;-67
2023/08/12 00:46:44;;;;;;;10.60;7.60;;;19.20;99.90;;;;;;5040234;28;20164;-66
2023/08/12 00:49:12;;;;;;;15.05;7.97;;;19.10;99.90;;;;;;4995646;28;20037;-67
2023/08/12 00:51:41;;;;;;;16.10;7.93;;;19.10;99.90;;;;;;5032076;28;20402;-67
2023/08/12 00:54:08;;;;;;;12.32;8.27;;;19.10;99.90;;;;;;5032783;28;20505;-67
2023/08/12 00:56:35;;;;;;;12.68;7.80;;;19.10;99.90;;;;;;5041079;28;20049;-67
2023/08/12 00:59:04;;;;;;;16.90;8.38;;;19.10;99.90;;;;;;5057841;28;20081;-67
2023/08/12 01:01:30;;;;;;;13.07;8.63;;;19.10;99.90;;;;;;5044781;28;20438;-66
2023/08/12 01:03:57;;;;;;;23.02;9.40;;;19.10;99.90;;;;;;5032233;28;20029;-67
2023/08/12 01:06:23;;;;;;;14.15;8.45;;;19.00;99.90;;;;;;5033517;28;20049;-67
2023/08/12 01:08:50;;;;;;;21.73;9.23;;;19.00;99.90;;;;;;5034601;28;20041;-66
2023/08/12 01:11:33;;;;;;;14.23;9.27;;;19.00;99.90;;;;;;5040004;28;20103;-67
2023/08/12 01:14:23;;;;;;;16.23;9.30;;;19.00;99.90;;;;;;5038940;28;20041;-67
2023/08/12 01:16:52;;;;;;;14.73;9.07;;;19.00;99.90;;;;;;5040640;28;20128;-66
2023/08/12 01:19:31;;;;;;;18.27;9.98;;;19.00;99.90;;;;;;5057979;28;20049;-67
2023/08/12 01:22:00;;;;;;;20.17;9.63;;;18.90;99.90;;;;;;5038635;28;20061;-67
2023/08/12 01:24:26;;;;;;;15.05;9.20;;;18.90;99.90;;;;;;5036975;28;20041;-67
2023/08/12 01:26:52;;;;;;;16.83;9.50;;;18.90;99.90;;;;;;5055411;28;20082;-67
2023/08/12 01:29:18;;;;;;;18.63;9.63;;;18.90;99.90;;;;;;5059573;28;20531;-66
2023/08/12 01:32:18;;;;;;;14.75;9.80;;;18.80;99.90;;;;;;5043607;28;21156;-67
2023/08/12 01:34:47;;;;;;;18.25;10.05;;;18.80;99.90;;;;;;5036427;28;20052;-66
2023/08/12 01:37:22;;;;;;;19.67;10.05;;;18.80;99.90;;;;;;5041389;28;20061;-67
2023/08/12 01:39:48;;;;;;;19.05;9.95;;;18.80;99.90;;;;;;5040369;28;20071;-67
2023/08/12 01:42:17;;;;;;;23.25;10.30;;;18.80;99.90;;;;;;5057420;28;20033;-66
2023/08/12 01:44:43;;;;;;;16.70;9.93;;;18.80;99.90;;;;;;5043972;28;20048;-67
2023/08/12 01:47:09;;;;;;;15.93;9.40;;;18.80;99.90;;;;;;5040957;28;20049;-67
2023/08/12 01:49:35;;;;;;;17.20;10.10;;;18.90;99.90;;;;;;5072990;28;20069;-66
2023/08/12 01:52:01;;;;;;;16.55;9.82;;;18.90;99.90;;;;;;5042384;28;20120;-66
2023/08/12 01:54:26;;;;;;;18.80;10.25;;;18.80;99.90;;;;;;5036276;28;20045;-66
2023/08/12 01:56:52;;;;;;;17.98;10.00;;;18.90;99.90;;;;;;5021384;28;20042;-67
2023/08/12 01:59:18;;;;;;;17.40;9.38;;;18.90;99.90;;;;;;5022668;28;20101;-67
2023/08/12 02:01:43;;;;;;;17.90;10.48;;;18.80;99.90;;;;;;5040758;28;20045;-67
2023/08/12 02:04:09;;;;;;;16.75;9.13;;;18.80;99.90;;;;;;5022804;28;20037;-66
2023/08/12 02:06:35;;;;;;;16.92;9.82;;;18.80;99.90;;;;;;5021410;28;20083;-66
2023/08/12 02:09:00;;;;;;;16.80;8.95;;;18.80;99.90;;;;;;5039804;28;20053;-67
2023/08/12 02:11:26;;;;;;;16.92;9.52;;;18.80;99.90;;;;;;5046925;28;20056;-66
2023/08/12 02:13:52;;;;;;;16.58;9.77;;;18.80;99.90;;;;;;5071806;28;20042;-66
2023/08/12 02:16:17;;;;;;;17.17;9.55;;;18.80;99.90;;;;;;5041940;28;20037;-66
2023/08/12 02:18:43;;;;;;;15.63;9.27;;;18.80;99.90;;;;;;5033076;28;20042;-66
2023/08/12 02:21:09;;;;;;;18.95;10.38;;;18.70;99.90;;;;;;5066068;28;20481;-66
2023/08/12 02:23:34;;;;;;;22.13;10.73;;;18.70;99.90;;;;;;5036737;28;20036;-66
2023/08/12 02:26:00;;;;;;;16.05;9.15;;;18.70;99.90;;;;;;5040402;28;20133;-66
2023/08/12 02:28:26;;;;;;;18.98;10.32;;;18.70;99.90;;;;;;5051664;28;20487;-66
2023/08/12 02:30:51;;;;;;;23.70;11.20;;;18.70;99.90;;;;;;5053726;28;20394;-66
2023/08/12 02:33:17;;;;;;;23.95;10.43;;;18.70;99.90;;;;;;5041476;28;20037;-66
2023/08/12 02:35:43;;;;;;;23.45;11.93;;;18.70;99.90;;;;;;5042636;28;20083;-67
2023/08/12 02:38:09;;;;;;;18.35;11.88;;;18.70;99.90;;;;;;5020199;28;20036;-67
2023/08/12 02:40:34;;;;;;;23.73;11.25;;;18.70;99.90;;;;;;5002882;28;20107;-67
2023/08/12 02:43:00;;;;;;;21.60;12.40;;;18.70;99.90;;;;;;4990982;28;20164;-67
2023/08/12 02:45:26;;;;;;;18.48;11.27;;;18.70;99.90;;;;;;5074875;28;20036;-67
2023/08/12 02:47:51;;;;;;;22.88;12.95;;;18.70;99.90;;;;;;5041500;28;20433;-67
2023/08/12 02:50:17;;;;;;;26.73;12.85;;;18.80;99.90;;;;;;5036914;28;20045;-67
2023/08/12 02:52:43;;;;;;;26.02;13.18;;;18.80;99.90;;;;;;5038399;28;20045;-66
2023/08/12 02:55:09;;;;;;;22.98;12.50;;;18.80;99.90;;;;;;5041622;28;20048;-67
2023/08/12 02:57:34;;;;;;;23.15;12.40;;;18.80;99.90;;;;;;5041245;28;20502;-67
2023/08/12 03:00:00;;;;;;;20.42;12.60;;;18.90;99.90;;;;;;5020643;28;20037;-67
2023/08/12 03:02:25;;;;;;;25.35;12.02;;;18.90;99.90;;;;;;5022219;28;20033;-67
2023/08/12 03:04:54;;;;;;;23.17;12.55;;;18.90;99.90;;;;;;5053057;28;20079;-66
2023/08/12 03:07:19;;;;;;;23.15;12.00;;;18.90;99.90;;;;;;5012876;28;20112;-67
2023/08/12 03:09:45;;;;;;;23.98;11.77;;;18.90;99.90;;;;;;5024052;28;20467;-67
2023/08/12 03:12:11;;;;;;;21.55;12.35;;;18.90;99.90;;;;;;5023552;28;20506;-67
2023/08/12 03:14:36;;;;;;;22.90;12.20;;;18.90;99.90;;;;;;5023652;28;20077;-67
2023/08/12 03:17:03;;;;;;;21.92;12.10;;;18.90;99.90;;;;;;5043024;28;20040;-67
2023/08/12 03:19:29;;;;;;;22.50;12.65;;;18.90;99.90;;;;;;5041361;28;20452;-67
2023/08/12 03:21:54;;;;;;;19.67;11.85;;;18.90;99.90;;;;;;5022014;28;20103;-66
2023/08/12 03:24:20;;;;;;;21.48;11.48;;;18.90;99.90;;;;;;5042480;28;20398;-66
2023/08/12 03:26:46;;;;;;;22.17;11.23;;;18.90;99.90;;;;;;5038042;28;20092;-67
2023/08/12 03:29:11;;;;;;;17.85;12.13;;;18.90;99.90;;;;;;5041319;28;20040;-67
2023/08/12 03:31:37;;;;;;;19.70;11.77;;;18.90;99.90;;;;;;5039556;28;20041;-67
2023/08/12 03:34:03;;;;;;;21.40;12.05;;;18.80;99.90;;;;;;5041885;28;20045;-69
2023/08/12 03:36:28;;;;;;;20.73;11.93;;;18.80;99.90;;;;;;5036602;28;20043;-67
2023/08/12 03:38:54;;;;;;;21.30;12.48;;;18.80;99.90;;;;;;5056331;28;20043;-67
2023/08/12 03:41:20;;;;;;;22.65;11.20;;;18.80;99.90;;;;;;5027872;28;20037;-67
2023/08/12 03:43:45;;;;;;;24.98;11.27;;;18.70;99.90;;;;;;5020433;28;20453;-67
2023/08/12 03:46:11;;;;;;;18.95;12.00;;;18.70;99.90;;;;;;5009725;28;20281;-67
2023/08/12 03:48:37;;;;;;;24.50;10.75;;;18.70;99.90;;;;;;5041350;28;20048;-67
2023/08/12 03:51:03;;;;;;;19.50;11.35;;;18.60;99.90;;;;;;5038400;28;20049;-67
2023/08/12 03:53:28;;;;;;;17.63;11.27;;;18.60;99.90;;;;;;5041255;28;20068;-67
2023/08/12 03:55:54;;;;;;;20.85;11.55;;;18.50;99.90;;;;;;5024113;28;20041;-67
2023/08/12 03:58:20;;;;;;;22.92;11.73;;;18.60;99.90;;;;;;5054982;28;20120;-67
2023/08/12 04:00:45;;;;;;;22.45;11.40;;;18.50;99.90;;;;;;5037995;28;20486;-67
2023/08/12 04:03:11;;;;;;;18.77;11.45;;;18.50;99.90;;;;;;5051911;28;20036;-70
2023/08/12 04:05:37;;;;;;;23.27;12.60;;;18.50;99.90;;;;;;5054525;28;20087;-68
2023/08/12 04:08:03;;;;;;;25.77;12.20;;;18.50;99.90;;;;;;5056570;28;20072;-67
2023/08/12 04:10:30;;;;;;;20.60;12.27;;;18.50;99.90;;;;;;5031572;28;20124;-67
2023/08/12 04:12:55;;;;;;;20.65;12.05;;;18.50;99.90;;;;;;5040690;28;20044;-68
2023/08/12 04:15:21;;;;;;;20.95;11.18;;;18.40;99.90;;;;;;5026948;28;20132;-69
2023/08/12 04:17:47;;;;;;;24.23;13.25;;;18.40;99.90;;;;;;5074918;28;20512;-67
2023/08/12 04:20:13;;;;;;;21.17;12.73;;;18.40;99.90;;;;;;5044718;28;20402;-67
2023/08/12 04:22:38;;;;;;;21.80;12.32;;;18.40;99.90;;;;;;5008342;28;20053;-67
2023/08/12 04:25:05;;;;;;;24.30;12.98;;;18.40;99.90;;;;;;5044773;28;20052;-67
2023/08/12 04:27:30;;;;;;;22.40;13.50;;;18.40;99.90;;;;;;5057509;28;20041;-68
2023/08/12 04:29:56;;;;;;;27.30;13.65;;;18.40;99.90;;;;;;5025222;28;20483;-68
2023/08/12 04:32:22;;;;;;;23.70;13.95;;;18.40;99.90;;;;;;5056862;28;20053;-68
2023/08/12 04:34:47;;;;;;;26.02;13.70;;;18.40;99.90;;;;;;5044487;28;20033;-68
2023/08/12 04:37:13;;;;;;;25.13;13.88;;;18.40;99.90;;;;;;5045821;28;20037;-68
2023/08/12 04:39:40;;;;;;;31.80;15.20;;;18.40;99.90;;;;;;5046734;28;20583;-68
2023/08/12 04:42:08;;;;;;;24.65;14.30;;;18.50;99.90;;;;;;5047854;28;20037;-68
2023/08/12 04:44:34;;;;;;;27.92;14.75;;;18.50;99.90;;;;;;5040904;28;20078;-68
2023/08/12 04:47:00;;;;;;;33.60;15.27;;;18.50;99.90;;;;;;5024097;28;20628;-68
2023/08/12 04:49:26;;;;;;;27.40;15.02;;;18.60;99.90;;;;;;5043680;28;20076;-68
2023/08/12 04:51:52;;;;;;;32.55;16.10;;;18.60;99.90;;;;;;5018227;28;20037;-68
2023/08/12 04:54:18;;;;;;;31.05;17.08;;;18.60;99.90;;;;;;5021896;28;20042;-68
2023/08/12 04:56:44;;;;;;;29.35;16.27;;;18.60;99.90;;;;;;5025590;28;20041;-68
2023/08/12 04:59:10;;;;;;;28.17;15.70;;;18.60;99.90;;;;;;5039392;28;20045;-68
2023/08/12 05:01:36;;;;;;;29.90;15.90;;;18.60;99.90;;;;;;5039701;28;20046;-68
2023/08/12 05:04:02;;;;;;;31.10;15.75;;;18.70;99.90;;;;;;5025683;28;20044;-68
2023/08/12 05:06:27;;;;;;;27.10;15.02;;;18.70;99.90;;;;;;5042979;28;20037;-68
2023/08/12 05:08:53;;;;;;;31.05;15.88;;;18.70;99.90;;;;;;5038854;28;20040;-68
2023/08/12 05:11:19;;;;;;;26.10;15.18;;;18.60;99.90;;;;;;5042408;28;20620;-69
2023/08/12 05:13:44;;;;;;;24.70;15.75;;;18.70;99.90;;;;;;5014807;28;20044;-68
2023/08/12 05:16:10;;;;;;;32.60;17.30;;;18.70;99.90;;;;;;5040782;28;20037;-68
2023/08/12 05:18:36;;;;;;;28.05;16.80;;;18.70;99.90;;;;;;5040973;28;20383;-68
2023/08/12 05:21:02;;;;;;;31.52;19.23;;;18.70;99.90;;;;;;5026395;28;20127;-68
2023/08/12 05:23:27;;;;;;;29.75;16.92;;;18.70;99.90;;;;;;5043713;28;20068;-68
2023/08/12 05:25:53;;;;;;;35.80;17.80;;;18.80;99.90;;;;;;5044699;28;20071;-68
2023/08/12 05:28:19;;;;;;;36.22;19.10;;;18.80;99.90;;;;;;5036844;28;20430;-68
2023/08/12 05:30:45;;;;;;;37.78;19.70;;;18.80;99.90;;;;;;5043672;28;20520;-68
2023/08/12 05:33:11;;;;;;;36.38;20.38;;;18.90;99.90;;;;;;5022378;28;20037;-69
2023/08/12 05:35:36;;;;;;;35.90;19.95;;;18.90;99.90;;;;;;5073653;28;20044;-68
2023/08/12 05:38:02;;;;;;;35.67;20.33;;;18.90;99.90;;;;;;5026393;28;20118;-68
2023/08/12 05:40:28;;;;;;;42.00;22.33;;;19.00;99.90;;;;;;5041107;28;20037;-68
2023/08/12 05:42:54;;;;;;;35.78;20.02;;;19.00;99.90;;;;;;5071190;28;20393;-68
2023/08/12 05:45:20;;;;;;;39.53;22.35;;;19.00;99.90;;;;;;5038834;28;20589;-68
2023/08/12 05:47:45;;;;;;;43.30;23.08;;;19.00;99.90;;;;;;5053861;28;20498;-68
2023/08/12 05:50:14;;;;;;;47.28;24.13;;;19.10;99.90;;;;;;5074131;28;20100;-69
2023/08/12 05:52:39;;;;;;;45.88;23.77;;;19.10;99.90;;;;;;5023619;28;20048;-68
2023/08/12 05:55:05;;;;;;;40.15;23.23;;;19.20;99.90;;;;;;5042061;28;20029;-68
2023/08/12 05:57:31;;;;;;;46.22;25.35;;;19.20;99.90;;;;;;5041974;28;20029;-69
2023/08/12 05:59:57;;;;;;;42.00;22.30;;;19.30;99.90;;;;;;5039981;28;20144;-70
2023/08/12 06:02:23;;;;;;;42.15;22.52;;;19.30;99.90;;;;;;5021959;28;20129;-69
2023/08/12 06:04:48;;;;;;;42.92;22.65;;;19.30;99.90;;;;;;5053457;28;20497;-68
2023/08/12 06:07:14;;;;;;;44.38;23.85;;;19.40;99.90;;;;;;5022398;28;20033;-68
2023/08/12 06:09:40;;;;;;;44.92;23.15;;;19.50;99.90;;;;;;5021873;28;20410;-69
2023/08/12 06:12:06;;;;;;;42.38;24.17;;;19.50;99.90;;;;;;5026237;28;20045;-68
2023/08/12 06:14:31;;;;;;;41.13;24.33;;;19.70;99.90;;;;;;5004206;28;20033;-68
2023/08/12 06:16:57;;;;;;;41.40;25.17;;;19.80;99.90;;;;;;5019617;28;20124;-68
2023/08/12 06:19:23;;;;;;;38.15;24.35;;;19.90;99.90;;;;;;5040274;28;20501;-68
2023/08/12 06:21:49;;;;;;;36.42;22.70;;;20.10;99.90;;;;;;5043955;28;20075;-69
2023/08/12 06:24:14;;;;;;;35.58;22.50;;;20.10;99.90;;;;;;5035526;28;20041;-68
2023/08/12 06:26:40;;;;;;;40.17;24.02;;;20.20;99.90;;;;;;5042986;28;20033;-69
2023/08/12 06:29:06;;;;;;;37.50;21.40;;;20.30;99.90;;;;;;5035752;28;20045;-69
2023/08/12 06:31:32;;;;;;;36.75;22.55;;;20.30;99.90;;;;;;5039982;28;20521;-69
2023/08/12 06:33:57;;;;;;;37.30;23.10;;;20.30;99.90;;;;;;5047187;28;20041;-68
2023/08/12 06:36:23;;;;;;;36.05;22.33;;;20.20;99.90;;;;;;5038197;28;20056;-71
2023/08/12 06:38:49;;;;;;;41.75;24.60;;;20.20;99.90;;;;;;5006383;28;20490;-70
2023/08/12 06:41:14;;;;;;;41.70;24.25;;;20.20;99.90;;;;;;5033576;28;20045;-68
2023/08/12 06:43:40;;;;;;;41.60;23.25;;;20.20;99.90;;;;;;5015665;28;20094;-67
2023/08/12 06:46:06;;;;;;;37.15;22.65;;;20.20;99.90;;;;;;5036800;28;20461;-68
2023/08/12 06:48:32;;;;;;;32.63;21.70;;;20.30;99.90;;;;;;4996492;28;20030;-67
2023/08/12 06:50:57;;;;;;;38.13;22.05;;;20.30;99.90;;;;;;5023083;28;20037;-67
2023/08/12 06:53:25;;;;;;;33.33;22.48;;;20.30;99.90;;;;;;5030717;28;20393;-67
2023/08/12 06:55:51;;;;;;;32.95;20.95;;;20.30;99.90;;;;;;5030879;28;20037;-68
2023/08/12 06:58:16;;;;;;;33.65;20.75;;;20.30;99.90;;;;;;5014331;28;20033;-67
2023/08/12 07:00:42;;;;;;;32.42;21.20;;;20.30;99.90;;;;;;5017547;28;20069;-68
2023/08/12 07:03:08;;;;;;;30.67;20.20;;;20.30;99.90;;;;;;5014991;28;20042;-68
2023/08/12 07:05:34;;;;;;;36.45;20.70;;;20.30;99.90;;;;;;5033021;28;20048;-67
2023/08/12 07:08:00;;;;;;;33.20;20.63;;;20.30;99.90;;;;;;5033613;28;20045;-67
2023/08/12 07:10:26;;;;;;;31.23;20.40;;;20.30;99.90;;;;;;5013674;28;20376;-67
2023/08/12 07:12:51;;;;;;;33.75;20.63;;;20.30;99.90;;;;;;5036987;28;20029;-67
2023/08/12 07:15:17;;;;;;;35.28;22.83;;;20.30;99.90;;;;;;5034445;28;20056;-67
2023/08/12 07:17:43;;;;;;;32.15;21.40;;;20.20;99.90;;;;;;5017199;28;20033;-67
2023/08/12 07:20:09;;;;;;;32.80;21.73;;;20.20;99.90;;;;;;5048658;28;20041;-67
2023/08/12 07:22:35;;;;;;;36.78;22.55;;;20.20;99.90;;;;;;5063007;28;20064;-66
2023/08/12 07:25:01;;;;;;;36.38;21.50;;;20.20;99.90;;;;;;5031300;28;20494;-67
2023/08/12 07:27:27;;;;;;;35.65;21.70;;;20.20;99.90;;;;;;5040478;28;20486;-66
2023/08/12 07:29:53;;;;;;;35.08;21.50;;;20.20;99.90;;;;;;5032142;28;20046;-67
2023/08/12 07:32:19;;;;;;;34.95;21.90;;;20.20;99.90;;;;;;5018549;28;20049;-67
2023/08/12 07:34:45;;;;;;;35.70;22.02;;;20.20;99.90;;;;;;5038302;28;20044;-67
2023/08/12 07:37:11;;;;;;;35.33;22.20;;;20.20;99.90;;;;;;5031490;28;20049;-66
2023/08/12 07:39:36;;;;;;;33.92;20.92;;;20.20;99.90;;;;;;5029200;28;20034;-66
2023/08/12 07:42:03;;;;;;;32.05;21.23;;;20.20;99.90;;;;;;5030017;28;20041;-66
2023/08/12 07:44:29;;;;;;;31.17;20.45;;;20.20;99.90;;;;;;5029780;28;20037;-66
2023/08/12 07:46:55;;;;;;;37.92;20.80;;;20.10;99.90;;;;;;5029946;28;20041;-68
2023/08/12 07:49:22;;;;;;;32.78;21.50;;;20.10;99.90;;;;;;5027621;28;20033;-67
2023/08/12 07:51:48;;;;;;;30.75;20.15;;;20.20;99.90;;;;;;5030584;28;20048;-67
2023/08/12 07:54:13;;;;;;;33.15;19.80;;;20.10;99.90;;;;;;5018290;28;20045;-67
2023/08/12 07:56:39;;;;;;;31.17;20.13;;;20.10;99.90;;;;;;5041456;28;20037;-70
2023/08/12 07:59:08;;;;;;;31.35;19.75;;;20.10;99.90;;;;;;5015728;28;20530;-71
2023/08/12 08:01:37;;;;;;;25.83;18.45;;;20.00;99.90;;;;;;5019074;28;20045;-67
2023/08/12 08:04:02;;;;;;;29.85;19.45;;;20.10;99.90;;;;;;5034704;28;20057;-70
2023/08/12 08:06:28;;;;;;;25.52;16.77;;;20.10;99.90;;;;;;5034376;28;20138;-69
2023/08/12 08:08:55;;;;;;;29.15;17.40;;;20.10;99.90;;;;;;5034227;28;20041;-70
2023/08/12 08:11:21;;;;;;;25.17;16.67;;;20.10;99.90;;;;;;5034378;28;20113;-70
2023/08/12 08:13:47;;;;;;;25.45;16.60;;;20.10;99.90;;;;;;5038004;28;20117;-67
2023/08/12 08:16:12;;;;;;;24.65;15.82;;;20.10;99.90;;;;;;5034531;28;20048;-67
2023/08/12 08:18:38;;;;;;;22.73;15.88;;;20.10;99.90;;;;;;5033975;28;20044;-66
2023/08/12 08:21:04;;;;;;;23.08;15.38;;;20.10;99.90;;;;;;5017058;28;20064;-67
2023/08/12 08:23:30;;;;;;;24.77;15.77;;;20.10;99.90;;;;;;5051326;28;20047;-66
2023/08/12 08:25:56;;;;;;;21.80;15.68;;;20.10;99.90;;;;;;5032946;28;20050;-66
2023/08/12 08:28:22;;;;;;;24.58;15.30;;;20.00;99.90;;;;;;5033178;28;20649;-66
2023/08/12 08:30:48;;;;;;;21.02;14.68;;;20.00;99.90;;;;;;5034195;28;20043;-66
2023/08/12 08:33:14;;;;;;;23.55;14.98;;;20.00;99.90;;;;;;5038173;28;20038;-67
2023/08/12 08:35:39;;;;;;;28.38;15.02;;;20.00;99.90;;;;;;5034160;28;20045;-67
2023/08/12 08:38:05;;;;;;;29.45;16.05;;;19.90;99.90;;;;;;5033362;28;20543;-67
2023/08/12 08:40:31;;;;;;;29.52;16.40;;;20.00;99.90;;;;;;5034327;28;20037;-67
2023/08/12 08:43:02;;;;;;;26.98;15.05;;;19.90;99.90;;;;;;5032269;28;20060;-67
2023/08/12 08:45:31;;;;;;;23.65;15.13;;;19.90;99.90;;;;;;5036999;28;20041;-68
2023/08/12 08:47:59;;;;;;;21.60;14.18;;;19.90;99.90;;;;;;5043432;28;20071;-67
2023/08/12 08:50:25;;;;;;;21.27;14.10;;;19.90;99.90;;;;;;5033895;28;20124;-68
2023/08/12 08:52:52;;;;;;;19.98;14.15;;;19.90;99.90;;;;;;5028116;28;20042;-67
2023/08/12 08:55:18;;;;;;;23.40;12.70;;;19.90;99.90;;;;;;5032912;28;20037;-68
2023/08/12 08:57:46;;;;;;;20.02;13.48;;;19.90;99.90;;;;;;5018319;28;20040;-67
2023/08/12 09:00:14;;;;;;;20.70;14.27;;;19.90;99.90;;;;;;5049325;28;20038;-68
2023/08/12 09:02:41;;;;;;;21.15;13.35;;;19.90;99.90;;;;;;5026585;28;20112;-68
2023/08/12 09:05:07;;;;;;;21.52;13.57;;;20.00;99.90;;;;;;5037468;28;20033;-67
2023/08/12 09:07:34;;;;;;;20.20;13.15;;;20.00;99.90;;;;;;5061752;28;20169;-68
2023/08/12 09:10:01;;;;;;;20.33;12.45;;;20.00;99.90;;;;;;5030230;28;20052;-68
2023/08/12 09:12:27;;;;;;;18.02;12.13;;;20.00;99.90;;;;;;5029524;28;20052;-68
2023/08/12 09:14:53;;;;;;;20.15;12.07;;;20.00;99.90;;;;;;5033718;28;20037;-68
2023/08/12 09:17:19;;;;;;;27.42;13.07;;;20.10;99.90;;;;;;5033043;28;20420;-67
2023/08/12 09:19:44;;;;;;;16.98;12.18;;;20.00;99.90;;;;;;5032570;28;20037;-67
2023/08/12 09:22:10;;;;;;;24.00;13.68;;;20.00;99.90;;;;;;5016630;28;20481;-67
2023/08/12 09:24:36;;;;;;;29.65;13.10;;;20.00;99.90;;;;;;5014613;28;20077;-67
2023/08/12 09:27:01;;;;;;;16.30;11.50;;;19.90;99.90;;;;;;5033144;28;20398;-70
2023/08/12 09:29:32;;;;;;;14.20;7.15;;;19.90;99.90;;;;;;5018170;28;20033;-70
2023/08/12 09:32:13;;;;;;;9.65;6.78;;;19.90;99.90;;;;;;4999927;28;20518;-70
2023/08/12 09:34:53;;;;;;;11.73;5.78;;;19.80;99.90;;;;;;5016575;28;20084;-70
2023/08/12 09:37:20;;;;;;;14.20;6.63;;;19.80;99.90;;;;;;5035171;28;20033;-70
2023/08/12 09:39:47;;;;;;;12.02;6.25;;;19.70;99.90;;;;;;5018060;28;20075;-74
2023/08/12 09:42:13;;;;;;;12.63;7.88;;;19.60;99.90;;;;;;5030508;28;20033;-74
2023/08/12 09:44:40;;;;;;;9.88;6.63;;;19.60;99.90;;;;;;5028441;28;20041;-74
2023/08/12 09:47:08;;;;;;;16.10;7.10;;;19.50;99.90;;;;;;5029506;28;20041;-74
2023/08/12 09:49:35;;;;;;;11.63;6.18;;;19.50;99.90;;;;;;5012581;28;20045;-74
2023/08/12 09:52:02;;;;;;;15.57;5.53;;;19.50;99.90;;;;;;5057189;28;20048;-75
2023/08/12 09:54:31;;;;;;;11.00;5.43;;;19.50;99.90;;;;;;5030448;28;20033;-76
2023/08/12 09:56:59;;;;;;;19.55;6.00;;;19.40;99.90;;;;;;5049095;28;20037;-75
2023/08/12 09:59:34;;;;;;;13.43;6.85;;;19.40;99.90;;;;;;5033092;28;20077;-76
2023/08/12 10:02:05;;;;;;;34.42;8.13;;;19.30;99.90;;;;;;5032240;28;20039;-78
2023/08/12 10:04:40;;;;;;;31.98;7.63;;;19.30;99.90;;;;;;5032401;28;20131;-79
2023/08/12 10:07:07;;;;;;;15.60;5.72;;;19.30;99.90;;;;;;5032028;28;20069;-71
2023/08/12 10:09:33;;;;;;;12.82;5.72;;;19.20;99.90;;;;;;5025515;28;20138;-70
2023/08/12 10:11:59;;;;;;;8.80;5.43;;;19.20;99.90;;;;;;5036586;28;20049;-70
2023/08/12 10:14:26;;;;;;;12.50;5.95;;;19.20;99.90;;;;;;5058221;28;20044;-70
2023/08/12 10:16:54;;;;;;;14.10;6.07;;;19.20;99.90;;;;;;5056999;28;20076;-71
2023/08/12 10:19:21;;;;;;;8.35;5.68;;;19.20;99.90;;;;;;5056315;28;20048;-71
2023/08/12 10:21:50;;;;;;;18.88;6.28;;;19.20;99.90;;;;;;5026522;28;20053;-71
2023/08/12 10:24:16;;;;;;;13.35;6.03;;;19.20;99.90;;;;;;5056550;28;20041;-71
2023/08/12 10:26:42;;;;;;;12.30;5.22;;;19.10;99.90;;;;;;5041254;28;20056;-70
2023/08/12 10:29:08;;;;;;;13.35;5.47;;;19.20;99.90;;;;;;5016953;28;20049;-71
2023/08/12 10:31:34;;;;;;;7.68;4.35;;;19.20;99.90;;;;;;5053155;28;20090;-71
2023/08/12 10:34:00;;;;;;;37.20;6.93;;;19.20;99.90;;;;;;5041725;28;20032;-71
2023/08/12 10:36:27;;;;;;;8.80;3.90;;;19.20;99.90;;;;;;5023209;28;20052;-71
2023/08/12 10:38:53;;;;;;;18.30;5.28;;;19.20;99.90;;;;;;5056968;28;20037;-72
2023/08/12 10:41:22;;;;;;;10.05;3.92;;;19.20;99.90;;;;;;5017561;28;20045;-72
2023/08/12 10:43:52;;;;;;;12.52;5.20;;;19.20;99.90;;;;;;5028612;28;20033;-72
2023/08/12 10:46:23;;;;;;;5.40;3.50;;;19.20;99.90;;;;;;5025912;28;20030;-72
2023/08/12 10:49:05;;;;;;;6.10;4.30;;;19.10;99.90;;;;;;5032482;28;20041;-72
2023/08/12 10:51:49;;;;;;;5.50;3.90;;;19.20;99.90;;;;;;5043879;28;20050;-72
2023/08/12 10:54:22;;;;;;;8.95;4.50;;;19.20;99.90;;;;;;5040200;28;20040;-72
2023/08/12 10:57:11;;;;;;;6.88;4.15;;;19.20;99.90;;;;;;5039127;28;20516;-72
2023/08/12 10:59:45;;;;;;;6.88;4.00;;;19.20;99.90;;;;;;5033326;28;20056;-72
2023/08/12 11:02:18;;;;;;;4.07;1.67;;;19.30;99.90;;;;;;5075428;28;20486;-72
2023/08/12 11:04:48;;;;;;;17.13;4.13;;;19.30;99.90;;;;;;5039182;28;20120;-72
2023/08/12 11:07:33;;;;;;;4.47;2.58;;;19.30;99.90;;;;;;5017266;28;20025;-72
2023/08/12 11:10:04;;;;;;;9.18;3.42;;;19.20;99.90;;;;;;5074653;28;20194;-72
2023/08/12 11:12:32;;;;;;;4.00;2.70;;;19.20;99.90;;;;;;5036665;28;20036;-71
2023/08/12 11:15:00;;;;;;;4.75;2.20;;;19.30;99.90;;;;;;5020474;28;20041;-72
2023/08/12 11:17:34;;;;;;;5.95;2.03;;;19.40;99.90;;;;;;5041615;28;20118;-73
2023/08/12 11:20:02;;;;;;;4.50;2.60;;;19.40;99.90;;;;;;5057216;28;20037;-72
2023/08/12 11:22:29;;;;;;;6.03;2.67;;;19.60;99.90;;;;;;5054841;28;20059;-72
2023/08/12 11:24:55;;;;;;;4.10;3.00;;;19.70;99.90;;;;;;5039953;28;20478;-72
2023/08/12 11:27:22;;;;;;;4.28;2.78;;;19.80;99.90;;;;;;5022495;28;20037;-72
2023/08/12 11:29:50;;;;;;;2.75;2.20;;;19.90;99.90;;;;;;5032419;28;20167;-72
2023/08/12 11:32:16;;;;;;;3.28;2.20;;;20.00;99.90;;;;;;5026104;28;20450;-72
2023/08/12 11:34:42;;;;;;;3.50;2.33;;;20.00;99.90;;;;;;5053554;28;20041;-72
2023/08/12 11:37:07;;;;;;;2.50;1.98;;;20.00;99.90;;;;;;5020278;28;20088;-72
2023/08/12 11:39:34;;;;;;;2.60;2.25;;;20.00;99.90;;;;;;5034705;28;20033;-72
2023/08/12 11:42:00;;;;;;;2.13;1.83;;;20.00;99.90;;;;;;5021287;28;20034;-71
2023/08/12 11:44:25;;;;;;;2.50;2.00;;;19.90;99.90;;;;;;5037609;28;20033;-72
2023/08/12 11:46:51;;;;;;;2.03;1.77;;;19.90;99.90;;;;;;5038347;28;20120;-72
2023/08/12 11:49:18;;;;;;;4.22;2.10;;;19.90;99.90;;;;;;5038895;28;20041;-71
2023/08/12 11:51:46;;;;;;;1.98;1.77;;;19.90;99.90;;;;;;5037310;28;20046;-71
2023/08/12 11:54:12;;;;;;;2.45;2.13;;;19.90;99.90;;;;;;5036968;28;20056;-71
2023/08/12 11:56:38;;;;;;;3.10;1.42;;;19.90;99.90;;;;;;5036164;28;20043;-71
2023/08/12 11:59:05;;;;;;;3.28;1.90;;;19.90;99.90;;;;;;5049686;28;20045;-81
2023/08/12 12:01:31;;;;;;;4.03;2.08;;;19.90;99.90;;;;;;5004521;28;20098;-81
2023/08/12 12:04:03;;;;;;;3.65;1.88;;;20.00;99.90;;;;;;5030018;28;20038;-82
2023/08/12 12:06:38;;;;;;;2.03;1.83;;;20.00;99.90;;;;;;5071703;28;20039;-81
2023/08/12 12:09:07;;;;;;;5.60;1.85;;;20.10;99.90;;;;;;5066675;28;20037;-81
2023/08/12 12:11:33;;;;;;;2.28;2.05;;;20.20;99.90;;;;;;5034462;28;20126;-79
2023/08/12 12:14:04;;;;;;;2.83;1.77;;;20.30;99.90;;;;;;5053034;28;20080;-78
2023/08/12 12:16:44;;;;;;;1.60;1.50;;;20.40;99.90;;;;;;5051206;28;20045;-79
2023/08/12 12:19:22;;;;;;;1.83;1.63;;;20.50;99.90;;;;;;5030805;28;20045;-80
2023/08/12 12:21:50;;;;;;;1.65;1.55;;;20.60;99.90;;;;;;5030421;28;20449;-79
2023/08/12 12:24:17;;;;;;;2.03;1.50;;;20.60;99.90;;;;;;5014265;28;20049;-80
2023/08/12 12:26:44;;;;;;;3.17;1.80;;;20.50;99.90;;;;;;4996852;28;20482;-81
2023/08/12 12:29:13;;;;;;;2.08;1.73;;;20.40;99.90;;;;;;5050200;28;20065;-80
2023/08/12 12:31:41;;;;;;;1.83;1.48;;;20.40;99.90;;;;;;5034756;28;20524;-80